createdAt,value
2023-04-22T00:01:15.210Z,7.65
2023-04-22T00:03:44.643Z,7.64
2023-04-22T00:06:11.591Z,7.66
2023-04-22T00:08:38.047Z,7.64
2023-04-22T00:11:04.618Z,7.62
2023-04-22T00:13:31.141Z,7.61
2023-04-22T00:15:57.882Z,7.58
2023-04-22T00:18:24.384Z,7.56
2023-04-22T00:20:51.035Z,7.51
2023-04-22T00:23:17.477Z,7.50
2023-04-22T00:25:43.946Z,7.48
2023-04-22T00:28:11.157Z,7.47
2023-04-22T00:30:37.675Z,7.41
2023-04-22T00:33:04.280Z,7.39
2023-04-22T00:35:30.761Z,7.35
2023-04-22T00:37:57.462Z,7.34
2023-04-22T00:40:23.979Z,7.30
2023-04-22T00:42:51.244Z,7.26
2023-04-22T00:45:19.812Z,7.27
2023-04-22T00:47:46.797Z,7.24
2023-04-22T00:50:13.825Z,7.19
2023-04-22T00:52:40.401Z,7.18
2023-04-22T00:55:07.496Z,7.12
2023-04-22T00:57:35.666Z,7.10
2023-04-22T01:00:02.774Z,7.06
2023-04-22T01:02:29.842Z,7.04
2023-04-22T01:04:56.522Z,7.02
2023-04-22T01:07:23.560Z,7.00
2023-04-22T01:09:50.091Z,6.96
2023-04-22T01:12:16.540Z,6.93
2023-04-22T01:14:43.077Z,6.89
2023-04-22T01:17:10.646Z,6.87
2023-04-22T01:19:37.707Z,6.86
2023-04-22T01:22:07.839Z,6.83
2023-04-22T01:24:34.698Z,6.76
2023-04-22T01:27:02.004Z,6.72
2023-04-22T01:29:28.816Z,6.69
2023-04-22T01:31:56.087Z,6.64
2023-04-22T01:34:22.854Z,6.64
2023-04-22T01:36:50.501Z,6.62
2023-04-22T01:39:18.193Z,6.57
2023-04-22T01:41:44.929Z,6.54
2023-04-22T01:44:11.368Z,6.55
2023-04-22T01:46:37.970Z,6.55
2023-04-22T01:49:04.747Z,6.55
2023-04-22T01:51:31.639Z,6.57
2023-04-22T01:53:58.225Z,6.56
2023-04-22T01:56:24.700Z,6.57
2023-04-22T01:58:51.328Z,6.54
2023-04-22T02:01:17.851Z,6.52
2023-04-22T02:03:44.522Z,6.52
2023-04-22T02:06:11.182Z,6.49
2023-04-22T02:08:38.330Z,6.50
2023-04-22T02:11:04.859Z,6.52
2023-04-22T02:13:38.217Z,6.48
2023-04-22T02:16:05.344Z,6.47
2023-04-22T02:18:31.843Z,6.45
2023-04-22T02:20:58.364Z,6.37
2023-04-22T02:23:25.027Z,6.33
2023-04-22T02:25:52.427Z,6.29
2023-04-22T02:28:19.258Z,6.27
2023-04-22T02:30:46.522Z,6.23
2023-04-22T02:33:13.294Z,6.24
2023-04-22T02:35:40.021Z,6.20
2023-04-22T02:38:06.558Z,6.19
2023-04-22T02:40:32.971Z,6.16
2023-04-22T02:42:59.460Z,6.11
2023-04-22T02:45:26.037Z,6.11
2023-04-22T02:47:52.494Z,6.11
2023-04-22T02:50:18.953Z,6.10
2023-04-22T02:52:45.606Z,6.11
2023-04-22T02:55:12.071Z,6.00
2023-04-22T02:57:38.468Z,5.94
2023-04-22T03:00:05.564Z,5.93
2023-04-22T03:02:32.120Z,5.93
2023-04-22T03:04:58.928Z,5.95
2023-04-22T03:07:25.541Z,5.95
2023-04-22T03:09:52.097Z,5.97
2023-04-22T03:12:18.549Z,5.98
2023-04-22T03:14:45.044Z,5.97
2023-04-22T03:17:11.518Z,5.88
2023-04-22T03:19:38.103Z,5.84
2023-04-22T03:22:04.903Z,5.83
2023-04-22T03:24:31.369Z,5.80
2023-04-22T03:26:57.842Z,5.76
2023-04-22T03:29:24.261Z,5.78
2023-04-22T03:31:50.696Z,5.77
2023-04-22T03:34:17.571Z,5.80
2023-04-22T03:36:44.020Z,5.84
2023-04-22T03:39:10.754Z,5.89
2023-04-22T03:41:37.144Z,5.96
2023-04-22T03:44:03.690Z,6.02
2023-04-22T03:46:30.800Z,6.04
2023-04-22T03:48:57.277Z,6.09
2023-04-22T03:51:23.670Z,6.09
2023-04-22T03:53:50.044Z,6.10
2023-04-22T03:56:16.508Z,6.08
2023-04-22T03:58:42.939Z,6.03
2023-04-22T04:01:09.347Z,5.99
2023-04-22T04:03:36.029Z,5.98
2023-04-22T04:06:03.373Z,5.98
2023-04-22T04:08:29.960Z,5.97
2023-04-22T04:10:56.417Z,5.99
2023-04-22T04:13:22.884Z,5.99
2023-04-22T04:15:49.902Z,5.96
2023-04-22T04:18:16.346Z,5.96
2023-04-22T04:20:42.733Z,5.97
2023-04-22T04:23:09.240Z,5.98
2023-04-22T04:25:39.050Z,5.98
2023-04-22T04:28:11.122Z,5.94
2023-04-22T04:30:38.150Z,5.97
2023-04-22T04:33:07.461Z,5.96
2023-04-22T04:35:35.399Z,5.93
2023-04-22T04:38:02.611Z,5.87
2023-04-22T04:40:29.484Z,5.89
2023-04-22T04:42:57.486Z,5.86
2023-04-22T04:45:24.758Z,5.88
2023-04-22T04:47:52.863Z,5.93
2023-04-22T04:50:22.818Z,5.92
2023-04-22T04:52:49.431Z,5.97
2023-04-22T04:55:17.151Z,5.97
2023-04-22T04:57:47.161Z,6.00
2023-04-22T05:00:16.803Z,6.01
2023-04-22T05:02:43.477Z,6.01
2023-04-22T05:05:10.324Z,6.04
2023-04-22T05:07:36.850Z,6.05
2023-04-22T05:10:04.031Z,6.08
2023-04-22T05:12:30.774Z,6.15
2023-04-22T05:14:57.213Z,6.19
2023-04-22T05:17:23.751Z,6.23
2023-04-22T05:19:50.213Z,6.25
2023-04-22T05:22:17.944Z,6.28
2023-04-22T05:24:44.482Z,6.31
2023-04-22T05:27:11.177Z,6.36
2023-04-22T05:29:38.003Z,6.40
2023-04-22T05:32:05.032Z,6.42
2023-04-22T05:34:31.635Z,6.43
2023-04-22T05:36:58.074Z,6.44
2023-04-22T05:39:24.564Z,6.48
2023-04-22T05:41:51.112Z,6.50
2023-04-22T05:44:18.225Z,6.57
2023-04-22T05:46:45.685Z,6.60
2023-04-22T05:49:12.120Z,6.63
2023-04-22T05:51:38.567Z,6.67
2023-04-22T05:54:05.033Z,6.69
2023-04-22T05:56:31.830Z,6.75
2023-04-22T05:58:58.301Z,6.85
2023-04-22T06:01:24.896Z,6.90
2023-04-22T06:03:51.760Z,6.94
2023-04-22T06:06:18.666Z,6.99
2023-04-22T06:08:45.193Z,7.06
2023-04-22T06:11:11.598Z,7.16
2023-04-22T06:13:38.065Z,7.26
2023-04-22T06:18:37.847Z,7.41
2023-04-22T06:21:05.012Z,7.40
2023-04-22T06:23:31.573Z,7.48
2023-04-22T06:25:58.562Z,7.57
2023-04-22T06:28:25.180Z,7.63
2023-04-22T06:30:51.648Z,7.65
2023-04-22T06:33:18.119Z,7.68
2023-04-22T06:35:45.129Z,7.75
2023-04-22T06:38:11.700Z,7.81
2023-04-22T06:40:38.206Z,7.90
2023-04-22T06:43:04.746Z,8.02
2023-04-22T06:45:31.252Z,8.12
2023-04-22T06:47:57.786Z,8.23
2023-04-22T06:50:25.096Z,8.29
2023-04-22T06:52:51.578Z,8.37
2023-04-22T06:55:18.270Z,8.52
2023-04-22T06:57:44.768Z,8.66
2023-04-22T07:00:11.823Z,8.72
2023-04-22T07:02:38.403Z,8.88
2023-04-22T07:05:05.221Z,8.99
2023-04-22T07:07:31.767Z,9.09
2023-04-22T07:09:58.204Z,9.22
2023-04-22T07:12:25.831Z,9.30
2023-04-22T07:14:52.385Z,9.48
2023-04-22T07:17:22.288Z,9.52
2023-04-22T07:19:49.293Z,9.63
2023-04-22T07:22:15.730Z,9.80
2023-04-22T07:24:42.411Z,9.93
2023-04-22T07:27:08.903Z,10.03
2023-04-22T07:29:35.441Z,10.11
2023-04-22T07:32:01.935Z,10.23
2023-04-22T07:34:28.474Z,10.30
2023-04-22T07:36:55.020Z,10.34
2023-04-22T07:39:22.754Z,10.55
2023-04-22T07:41:49.406Z,10.74
2023-04-22T07:44:18.561Z,10.88
2023-04-22T07:46:45.064Z,10.93
2023-04-22T07:49:13.952Z,10.89
2023-04-22T07:51:41.190Z,10.91
2023-04-22T07:54:07.679Z,10.93
2023-04-22T07:56:34.571Z,10.96
2023-04-22T07:59:01.091Z,11.05
2023-04-22T08:01:27.475Z,11.19
2023-04-22T08:03:54.194Z,11.33
2023-04-22T08:06:20.781Z,11.53
2023-04-22T08:08:47.302Z,11.71
2023-04-22T08:11:13.779Z,11.77
2023-04-22T08:13:40.234Z,11.89
2023-04-22T08:16:07.500Z,11.98
2023-04-22T08:18:34.221Z,12.00
2023-04-22T08:21:00.696Z,12.07
2023-04-22T08:23:27.137Z,12.09
2023-04-22T08:25:53.813Z,12.18
2023-04-22T08:28:20.302Z,12.22
2023-04-22T08:30:46.772Z,12.31
2023-04-22T08:33:13.304Z,12.20
2023-04-22T08:35:40.376Z,12.17
2023-04-22T08:38:06.883Z,12.29
2023-04-22T08:40:34.916Z,12.40
2023-04-22T08:43:01.341Z,12.44
2023-04-22T08:45:29.262Z,12.49
2023-04-22T08:47:56.663Z,12.56
2023-04-22T08:50:23.206Z,12.54
2023-04-22T08:52:49.690Z,12.54
2023-04-22T08:55:16.350Z,12.60
2023-04-22T08:57:44.116Z,12.67
2023-04-22T09:00:11.043Z,12.74
2023-04-22T09:02:42.046Z,12.79
2023-04-22T09:05:10.468Z,12.80
2023-04-22T09:07:38.390Z,12.85
2023-04-22T09:10:05.295Z,12.97
2023-04-22T09:12:31.771Z,13.18
2023-04-22T09:14:58.250Z,13.36
2023-04-22T09:17:37.225Z,13.44
2023-04-22T09:20:06.134Z,13.52
2023-04-22T09:22:44.822Z,13.61
2023-04-22T09:25:18.664Z,13.68
2023-04-22T09:27:55.865Z,13.83
2023-04-22T09:30:28.448Z,13.83
2023-04-22T09:32:56.666Z,13.82
2023-04-22T09:35:27.271Z,13.88
2023-04-22T09:37:53.935Z,14.07
2023-04-22T09:40:20.446Z,14.21
2023-04-22T09:42:54.725Z,14.34
2023-04-22T09:45:38.365Z,14.49
2023-04-22T09:48:13.728Z,14.72
2023-04-22T09:50:43.883Z,14.87
2023-04-22T09:53:13.665Z,14.82
2023-04-22T09:55:43.695Z,14.87
2023-04-22T09:58:14.762Z,15.01
2023-04-22T10:00:50.906Z,15.11
2023-04-22T10:03:18.379Z,15.16
2023-04-22T10:05:46.175Z,15.07
2023-04-22T10:08:14.802Z,15.06
2023-04-22T10:10:41.647Z,15.17
2023-04-22T10:13:09.027Z,15.32
2023-04-22T10:15:44.591Z,15.49
2023-04-22T10:18:14.618Z,15.54
2023-04-22T10:20:42.966Z,15.53
2023-04-22T10:23:21.333Z,15.54
2023-04-22T10:25:53.958Z,15.63
2023-04-22T10:28:22.435Z,15.66
2023-04-22T10:30:49.571Z,15.59
2023-04-22T10:33:21.963Z,15.61
2023-04-22T10:36:08.147Z,15.68
2023-04-22T10:38:39.676Z,15.73
2023-04-22T10:41:06.283Z,15.77
2023-04-22T10:43:46.162Z,15.85
2023-04-22T10:46:32.969Z,15.95
2023-04-22T10:49:06.819Z,16.04
2023-04-22T10:51:43.705Z,16.17
2023-04-22T10:54:36.473Z,16.23
2023-04-22T10:57:11.131Z,16.49
2023-04-22T10:59:51.285Z,16.71
2023-04-22T11:02:19.309Z,17.18
2023-04-22T11:04:46.340Z,17.39
2023-04-22T11:07:20.600Z,17.22
2023-04-22T11:09:51.290Z,17.10
2023-04-22T11:12:36.066Z,17.12
2023-04-22T11:15:09.892Z,17.03
2023-04-22T11:17:37.704Z,16.92
2023-04-22T11:20:05.976Z,16.81
2023-04-22T11:22:53.447Z,16.79
2023-04-22T11:25:21.453Z,16.73
2023-04-22T11:27:48.040Z,16.83
2023-04-22T11:30:17.477Z,16.98
2023-04-22T11:32:49.494Z,17.17
2023-04-22T11:35:19.291Z,17.36
2023-04-22T11:37:50.788Z,17.39
2023-04-22T11:40:30.922Z,17.20
2023-04-22T11:42:59.873Z,16.98
2023-04-22T11:45:27.212Z,16.76
2023-04-22T11:47:53.976Z,16.52
2023-04-22T11:50:34.280Z,16.30
2023-04-22T11:53:20.178Z,16.12
2023-04-22T11:55:51.068Z,15.91
2023-04-22T11:58:19.886Z,15.70
2023-04-22T12:00:48.196Z,15.55
2023-04-22T12:03:18.677Z,15.46
2023-04-22T12:05:47.093Z,15.40
2023-04-22T12:08:16.588Z,15.32
2023-04-22T12:10:43.029Z,15.21
2023-04-22T12:13:09.925Z,15.15
2023-04-22T12:15:42.201Z,15.04
2023-04-22T12:18:09.005Z,14.98
2023-04-22T12:20:40.358Z,14.93
2023-04-22T12:23:13.318Z,14.89
2023-04-22T12:25:39.807Z,14.96
2023-04-22T12:28:06.216Z,14.98
2023-04-22T12:30:33.060Z,14.97
2023-04-22T12:32:59.617Z,14.99
2023-04-22T12:35:27.062Z,15.08
2023-04-22T12:37:53.476Z,15.12
2023-04-22T12:40:20.004Z,15.13
2023-04-22T12:42:46.513Z,15.01
2023-04-22T12:45:13.051Z,14.95
2023-04-22T12:47:39.749Z,14.95
2023-04-22T12:50:06.758Z,14.93
2023-04-22T12:52:34.693Z,14.89
2023-04-22T12:55:01.093Z,14.83
2023-04-22T12:57:27.675Z,14.73
2023-04-22T12:59:54.530Z,14.74
2023-04-22T13:02:20.916Z,14.72
2023-04-22T13:04:47.396Z,14.66
2023-04-22T13:07:13.899Z,14.61
2023-04-22T13:09:41.843Z,14.56
2023-04-22T13:12:08.892Z,14.46
2023-04-22T13:14:35.421Z,14.43
2023-04-22T13:17:01.895Z,14.36
2023-04-22T13:19:29.561Z,14.36
2023-04-22T13:21:56.114Z,14.35
2023-04-22T13:24:22.551Z,14.36
2023-04-22T13:26:49.254Z,14.35
2023-04-22T13:29:15.833Z,14.37
2023-04-22T13:31:44.524Z,14.39
2023-04-22T13:34:11.932Z,14.34
2023-04-22T13:36:38.406Z,14.33
2023-04-22T13:39:04.929Z,14.34
2023-04-22T13:41:31.690Z,14.34
2023-04-22T13:43:59.643Z,14.27
2023-04-22T13:46:27.221Z,14.15
2023-04-22T13:48:54.782Z,14.12
2023-04-22T13:51:21.288Z,14.10
2023-04-22T13:53:47.847Z,14.12
2023-04-22T13:56:14.404Z,14.14
2023-04-22T13:58:42.539Z,14.17
2023-04-22T14:01:09.297Z,14.21
2023-04-22T14:03:36.165Z,14.14
2023-04-22T14:06:03.779Z,14.11
2023-04-22T14:08:30.322Z,14.09
2023-04-22T14:10:57.230Z,14.04
2023-04-22T14:13:23.724Z,13.92
2023-04-22T14:15:50.689Z,13.85
2023-04-22T14:18:17.164Z,13.89
2023-04-22T14:20:45.150Z,13.89
2023-04-22T14:23:11.944Z,13.95
2023-04-22T14:25:38.645Z,13.99
2023-04-22T14:28:05.905Z,13.95
2023-04-22T14:30:32.617Z,13.97
2023-04-22T14:33:00.490Z,13.84
2023-04-22T14:35:27.539Z,13.75
2023-04-22T14:37:54.104Z,13.72
2023-04-22T14:40:20.748Z,13.74
2023-04-22T14:42:47.684Z,13.82
2023-04-22T14:45:14.781Z,13.86
2023-04-22T14:47:41.532Z,13.78
2023-04-22T14:50:08.330Z,13.77
2023-04-22T14:52:34.906Z,13.83
2023-04-22T14:55:11.928Z,13.87
2023-04-22T14:57:47.205Z,13.90
2023-04-22T15:00:14.334Z,13.94
2023-04-22T15:02:41.123Z,13.91
2023-04-22T15:05:08.114Z,13.94
2023-04-22T15:07:34.731Z,13.93
2023-04-22T15:10:01.346Z,13.95
2023-04-22T15:12:28.324Z,13.91
2023-04-22T15:14:54.880Z,13.89
2023-04-22T15:17:21.922Z,13.87
2023-04-22T15:19:48.606Z,13.89
2023-04-22T15:22:15.228Z,13.89
2023-04-22T15:24:41.853Z,13.83
2023-04-22T15:27:08.542Z,13.81
2023-04-22T15:29:35.112Z,13.79
2023-04-22T15:32:02.692Z,13.73
2023-04-22T15:34:29.301Z,13.67
2023-04-22T15:36:55.802Z,13.62
2023-04-22T15:39:23.642Z,13.67
2023-04-22T15:41:50.181Z,13.62
2023-04-22T15:44:16.833Z,13.60
2023-04-22T15:46:46.033Z,13.59
2023-04-22T15:49:13.360Z,13.53
2023-04-22T15:51:40.814Z,13.52
2023-04-22T15:54:08.676Z,13.49
2023-04-22T15:56:36.012Z,13.46
2023-04-22T15:59:02.597Z,13.39
2023-04-22T16:01:29.118Z,13.33
2023-04-22T16:03:55.941Z,13.25
2023-04-22T16:06:22.548Z,13.20
2023-04-22T16:08:49.032Z,13.06
2023-04-22T16:11:15.768Z,12.93
2023-04-22T16:13:43.186Z,12.78
2023-04-22T16:16:10.149Z,12.47
2023-04-22T16:18:37.693Z,12.24
2023-04-22T16:21:04.382Z,12.04
2023-04-22T16:23:33.637Z,11.88
2023-04-22T16:26:02.605Z,11.78
2023-04-22T16:28:29.261Z,11.65
2023-04-22T16:30:55.869Z,11.55
2023-04-22T16:33:25.070Z,11.48
2023-04-22T16:35:51.830Z,11.44
2023-04-22T16:38:18.443Z,11.50
2023-04-22T16:40:45.119Z,11.50
2023-04-22T16:43:12.927Z,11.46
2023-04-22T16:45:40.522Z,11.42
2023-04-22T16:48:07.073Z,11.34
2023-04-22T16:50:33.839Z,11.33
2023-04-22T16:53:02.281Z,11.21
2023-04-22T16:55:28.893Z,11.11
2023-04-22T16:57:55.405Z,11.10
2023-04-22T17:00:23.965Z,10.93
2023-04-22T17:02:50.808Z,10.83
2023-04-22T17:05:17.466Z,10.89
2023-04-22T17:07:44.638Z,10.92
2023-04-22T17:10:11.460Z,10.91
2023-04-22T17:12:37.923Z,11.01
2023-04-22T17:15:05.693Z,10.98
2023-04-22T17:17:32.319Z,10.99
2023-04-22T17:19:58.771Z,10.91
2023-04-22T17:22:25.502Z,11.00
2023-04-22T17:24:52.329Z,11.09
2023-04-22T17:27:18.793Z,11.10
2023-04-22T17:29:46.512Z,11.08
2023-04-22T17:32:13.008Z,11.05
2023-04-22T17:34:39.843Z,11.10
2023-04-22T17:37:06.890Z,11.10
2023-04-22T17:39:33.650Z,11.03
2023-04-22T17:42:00.701Z,11.02
2023-04-22T17:44:27.217Z,11.01
2023-04-22T17:46:53.737Z,11.02
2023-04-22T17:49:20.443Z,11.00
2023-04-22T17:51:47.018Z,10.94
2023-04-22T17:54:13.866Z,10.88
2023-04-22T17:56:40.387Z,10.89
2023-04-22T17:59:07.319Z,10.84
2023-04-22T18:01:33.833Z,10.82
2023-04-22T18:04:00.659Z,10.75
2023-04-22T18:06:28.893Z,10.72
2023-04-22T18:08:55.336Z,10.65
2023-04-22T18:11:22.912Z,10.56
2023-04-22T18:13:49.351Z,10.56
2023-04-22T18:16:16.220Z,10.60
2023-04-22T18:18:42.733Z,10.61
2023-04-22T18:21:09.256Z,10.72
2023-04-22T18:23:35.792Z,10.81
2023-04-22T18:26:09.512Z,10.88
2023-04-22T18:28:36.878Z,10.91
2023-04-22T18:31:03.459Z,10.92
2023-04-22T18:33:30.160Z,10.91
2023-04-22T18:35:56.644Z,10.81
2023-04-22T18:38:23.181Z,10.73
2023-04-22T18:40:49.678Z,10.66
2023-04-22T18:43:16.233Z,10.58
2023-04-22T18:45:42.764Z,10.56
2023-04-22T18:48:09.251Z,10.52
2023-04-22T18:50:35.761Z,10.50
2023-04-22T18:53:02.288Z,10.44
2023-04-22T18:55:28.815Z,10.32
2023-04-22T18:57:55.558Z,10.24
2023-04-22T19:00:22.187Z,10.21
2023-04-22T19:02:49.011Z,10.18
2023-04-22T19:05:17.887Z,10.13
2023-04-22T19:07:45.311Z,10.09
2023-04-22T19:10:12.333Z,9.98
2023-04-22T19:12:38.946Z,9.91
2023-04-22T19:15:09.383Z,9.83
2023-04-22T19:17:36.091Z,9.75
2023-04-22T19:20:02.525Z,9.71
2023-04-22T19:22:29.086Z,9.67
2023-04-22T19:24:57.122Z,9.66
2023-04-22T19:27:23.588Z,9.69
2023-04-22T19:29:53.415Z,9.73
2023-04-22T19:32:20.717Z,9.73
2023-04-22T19:34:47.843Z,9.69
2023-04-22T19:37:14.361Z,9.65
2023-04-22T19:39:41.299Z,9.62
2023-04-22T19:42:08.206Z,9.61
2023-04-22T19:44:34.915Z,9.61
2023-04-22T19:47:01.544Z,9.57
2023-04-22T19:49:31.053Z,9.51
2023-04-22T19:51:58.350Z,9.46
2023-04-22T19:54:28.189Z,9.38
2023-04-22T19:56:56.363Z,9.32
2023-04-22T19:59:23.767Z,9.27
2023-04-22T20:01:50.690Z,9.20
2023-04-22T20:04:17.707Z,9.12
2023-04-22T20:06:45.768Z,9.02
2023-04-22T20:09:12.741Z,8.95
2023-04-22T20:11:40.315Z,8.90
2023-04-22T20:14:09.765Z,8.85
2023-04-22T20:16:37.476Z,8.78
2023-04-22T20:19:04.150Z,8.70
2023-04-22T20:21:31.810Z,8.67
2023-04-22T20:23:59.686Z,8.62
2023-04-22T20:26:26.298Z,8.59
2023-04-22T20:28:54.104Z,8.60
2023-04-22T20:31:22.828Z,8.61
2023-04-22T20:33:50.609Z,8.60
2023-04-22T20:36:18.875Z,8.60
2023-04-22T20:38:48.587Z,8.54
2023-04-22T20:41:19.005Z,8.45
2023-04-22T20:43:46.669Z,8.37
2023-04-22T20:46:13.510Z,8.33
2023-04-22T20:48:40.240Z,8.28
2023-04-22T20:51:07.040Z,8.26
2023-04-22T20:53:34.115Z,8.23
2023-04-22T20:56:00.654Z,8.22
2023-04-22T20:58:28.183Z,8.23
2023-04-22T21:00:54.714Z,8.22
2023-04-22T21:03:22.735Z,8.16
2023-04-22T21:05:50.197Z,8.10
2023-04-22T21:08:21.640Z,8.06
2023-04-22T21:10:49.304Z,8.05
2023-04-22T21:13:16.524Z,8.02
2023-04-22T21:16:23.864Z,7.98
2023-04-22T21:18:51.642Z,7.96
2023-04-22T21:21:21.485Z,7.90
2023-04-22T21:23:48.538Z,7.85
2023-04-22T21:26:15.741Z,7.80
2023-04-22T21:28:42.592Z,7.72
2023-04-22T21:31:09.280Z,7.71
2023-04-22T21:33:35.790Z,7.68
2023-04-22T21:36:03.637Z,7.66
2023-04-22T21:38:30.199Z,7.65
2023-04-22T21:40:56.779Z,7.59
2023-04-22T21:43:23.514Z,7.57
2023-04-22T21:45:49.989Z,7.52
2023-04-22T21:48:16.442Z,7.53
2023-04-22T21:50:43.099Z,7.49
2023-04-22T21:53:09.598Z,7.42
2023-04-22T21:55:36.301Z,7.40
2023-04-22T21:58:02.834Z,7.38
2023-04-22T22:00:29.425Z,7.31
2023-04-22T22:02:56.070Z,7.27
2023-04-22T22:05:22.682Z,7.26
2023-04-22T22:07:49.334Z,7.24
2023-04-22T22:10:19.193Z,7.21
2023-04-22T22:12:46.911Z,7.24
2023-04-22T22:15:13.643Z,7.26
2023-04-22T22:17:40.324Z,7.29
2023-04-22T22:20:16.680Z,7.28
2023-04-22T22:22:44.198Z,7.28
2023-04-22T22:25:12.413Z,7.31
2023-04-22T22:27:45.741Z,7.36
2023-04-22T22:30:13.760Z,7.38
2023-04-22T22:32:40.659Z,7.40
2023-04-22T22:35:07.544Z,7.41
2023-04-22T22:37:34.745Z,7.43
2023-04-22T22:40:01.764Z,7.49
2023-04-22T22:42:28.343Z,7.47
2023-04-22T22:44:55.837Z,7.45
2023-04-22T22:47:22.450Z,7.46
2023-04-22T22:49:49.044Z,7.49
2023-04-22T22:52:15.864Z,7.49
2023-04-22T22:54:42.756Z,7.51
2023-04-22T22:57:09.609Z,7.49
2023-04-22T22:59:37.343Z,7.54
2023-04-22T23:02:04.674Z,7.55
2023-04-22T23:04:31.843Z,7.58
2023-04-22T23:06:58.561Z,7.57
2023-04-22T23:09:25.115Z,7.58
2023-04-22T23:11:52.050Z,7.57
2023-04-22T23:14:20.026Z,7.55
2023-04-22T23:16:47.397Z,7.56
2023-04-22T23:19:15.040Z,7.55
2023-04-22T23:21:42.184Z,7.54
2023-04-22T23:24:13.908Z,7.53
2023-04-22T23:26:41.161Z,7.54
2023-04-22T23:29:08.703Z,7.52
2023-04-22T23:31:45.240Z,7.52
2023-04-22T23:34:12.678Z,7.52
2023-04-22T23:36:39.636Z,7.50
2023-04-22T23:39:08.035Z,7.49
2023-04-22T23:41:34.550Z,7.46
2023-04-22T23:44:01.159Z,7.41
2023-04-22T23:46:27.946Z,7.39
2023-04-22T23:48:54.886Z,7.33
2023-04-22T23:51:21.751Z,7.34
2023-04-22T23:53:48.212Z,7.32
2023-04-22T23:56:19.980Z,7.32
2023-04-22T23:58:47.534Z,7.32
